Romero, Texas
Current Conditions -  °F | °C
As of 12:03 PM on Thursday 18 Dec 2014 (Local Time) from KDHT Reporting Station
Overcast Overcast  
Wind Chill: 31°   Ceiling: 500
Heat Index: 31°   Visibility: 7mi
Dew Point: 27°   Wind: 0mph
Humidity: 85%   Direction: NA
Pressure: 30.13"   Gusts: NA
Location:  35.73°N, 102.93°W
Report Text: KDHT 181803Z AUTO 00000KT 7SM OVC005 M01/M03 A3013 RMK AO2 T10061028
Loading
Personal Weather Stations






























Interactive Weather Map New forecast layout! Learn more

10-Day Weather Forecast

Advertisements
Track Severe Weather on mobile